OKJAV LKKV-LKPR
Flight info
| Callsign | OKJAV |
|---|---|
| Flight time | N/A |
| Altitude | 11000 |
| Route | LOMKI |
| Aircraft | BE9L/L-SBDFGRY/SB1 |
Departure
| Time | 2026-04-29 06:50 |
|---|---|
| Airport | Karlovy Vary Airport (LKKV) |
Arrival
| Time | N/A |
|---|---|
| Airport | Václav Havel Airport Prague (LKPR) |
| Time | Latitude | Longitude | Altitude | Speed | Heading |
|---|---|---|---|---|---|
| 2026-04-29 06:41 | 50.20192 | 12.91119 | 1967 ft | 0 kts | 201° |
| 2026-04-29 06:47 | 50.20188 | 12.91115 | 1967 ft | 4 kts | 234° |
| 2026-04-29 06:48 | 50.20220 | 12.91126 | 1966 ft | 8 kts | 7° |
| 2026-04-29 06:48 | 50.20294 | 12.91202 | 1965 ft | 10 kts | 25° |
| 2026-04-29 06:48 | 50.20303 | 12.91208 | 1965 ft | 0 kts | 22° |
| 2026-04-29 06:49 | 50.20336 | 12.91231 | 1964 ft | 12 kts | 24° |
| 2026-04-29 06:49 | 50.20354 | 12.91330 | 1964 ft | 10 kts | 108° |
| 2026-04-29 06:49 | 50.20352 | 12.91339 | 1964 ft | 4 kts | 111° |
| 2026-04-29 06:50 | 50.20203 | 12.91888 | 1976 ft | 95 kts | 111° |
| 2026-04-29 06:50 | 50.19897 | 12.92963 | 2273 ft | 111 kts | 109° |
| 2026-04-29 06:50 | 50.19595 | 12.94122 | 2683 ft | 126 kts | 107° |
| 2026-04-29 06:50 | 50.19235 | 12.95423 | 3070 ft | 138 kts | 115° |
| 2026-04-29 06:51 | 50.18720 | 12.96654 | 3603 ft | 138 kts | 116° |
| 2026-04-29 06:51 | 50.18627 | 12.96881 | 3695 ft | 138 kts | 116° |
| 2026-04-29 06:51 | 50.18166 | 12.98214 | 4124 ft | 141 kts | 105° |
| 2026-04-29 06:51 | 50.17908 | 12.99673 | 4626 ft | 141 kts | 103° |
| 2026-04-29 06:52 | 50.17581 | 13.01097 | 5142 ft | 140 kts | 105° |
| 2026-04-29 06:52 | 50.17262 | 13.02553 | 5573 ft | 143 kts | 99° |
| 2026-04-29 06:52 | 50.16800 | 13.03951 | 5985 ft | 157 kts | 134° |
| 2026-04-29 06:52 | 50.15771 | 13.04585 | 6514 ft | 165 kts | 160° |
| 2026-04-29 06:53 | 50.14701 | 13.05151 | 7076 ft | 163 kts | 152° |
| 2026-04-29 06:53 | 50.13671 | 13.05879 | 7588 ft | 165 kts | 149° |
| 2026-04-29 06:53 | 50.12640 | 13.06669 | 8081 ft | 167 kts | 148° |
| 2026-04-29 06:53 | 50.11599 | 13.07495 | 8563 ft | 170 kts | 148° |
| 2026-04-29 06:54 | 50.10559 | 13.08331 | 9032 ft | 172 kts | 148° |
| 2026-04-29 06:54 | 50.09489 | 13.09195 | 9510 ft | 174 kts | 148° |
| 2026-04-29 06:54 | 50.08401 | 13.10074 | 9880 ft | 183 kts | 149° |
| 2026-04-29 06:54 | 50.07203 | 13.11042 | 9904 ft | 207 kts | 150° |
| 2026-04-29 06:55 | 50.05858 | 13.12122 | 9900 ft | 225 kts | 150° |
| 2026-04-29 06:55 | 50.04442 | 13.13260 | 9898 ft | 236 kts | 150° |
| 2026-04-29 06:55 | 50.03005 | 13.14418 | 10266 ft | 227 kts | 150° |
| 2026-04-29 06:55 | 50.01593 | 13.15556 | 10288 ft | 234 kts | 150° |
| 2026-04-29 06:56 | 50.00112 | 13.16747 | 10294 ft | 243 kts | 150° |
| 2026-04-29 06:56 | 49.98602 | 13.17963 | 10298 ft | 249 kts | 150° |
| 2026-04-29 06:56 | 49.97052 | 13.19208 | 10291 ft | 254 kts | 150° |
| 2026-04-29 06:56 | 49.95458 | 13.20488 | 10290 ft | 257 kts | 150° |
| 2026-04-29 06:57 | 49.93882 | 13.21769 | 10292 ft | 258 kts | 147° |
| 2026-04-29 06:57 | 49.92682 | 13.23739 | 10268 ft | 251 kts | 110° |
| 2026-04-29 06:57 | 49.92479 | 13.26327 | 10301 ft | 243 kts | 84° |
| 2026-04-29 06:57 | 49.92526 | 13.28979 | 10299 ft | 245 kts | 85° |
| 2026-04-29 06:58 | 49.92578 | 13.31608 | 10286 ft | 246 kts | 84° |
| 2026-04-29 06:58 | 49.92559 | 13.34268 | 10295 ft | 248 kts | 90° |
| 2026-04-29 06:58 | 49.92462 | 13.36905 | 10298 ft | 248 kts | 89° |
| 2026-04-29 06:58 | 49.92370 | 13.39608 | 10291 ft | 249 kts | 90° |
| 2026-04-29 06:59 | 49.92278 | 13.42281 | 10290 ft | 249 kts | 90° |
| 2026-04-29 06:59 | 49.92188 | 13.44915 | 10281 ft | 248 kts | 89° |
| 2026-04-29 06:59 | 49.92095 | 13.47586 | 10284 ft | 247 kts | 89° |
| 2026-04-29 06:59 | 49.92001 | 13.50228 | 10290 ft | 247 kts | 89° |
| 2026-04-29 07:00 | 49.91900 | 13.52901 | 10288 ft | 246 kts | 90° |
| 2026-04-29 07:00 | 49.91798 | 13.55557 | 10283 ft | 246 kts | 89° |
| 2026-04-29 07:00 | 49.91694 | 13.58187 | 10287 ft | 246 kts | 89° |
| 2026-04-29 07:00 | 49.91598 | 13.60761 | 10277 ft | 236 kts | 89° |
| 2026-04-29 07:01 | 49.91501 | 13.63288 | 10275 ft | 228 kts | 89° |
| 2026-04-29 07:01 | 49.91406 | 13.65642 | 10264 ft | 216 kts | 90° |
| 2026-04-29 07:01 | 49.91313 | 13.67948 | 10162 ft | 211 kts | 90° |
| 2026-04-29 07:01 | 49.91221 | 13.70190 | 10055 ft | 208 kts | 90° |
| 2026-04-29 07:02 | 49.91128 | 13.72397 | 9969 ft | 202 kts | 90° |
| 2026-04-29 07:02 | 49.91037 | 13.74557 | 9750 ft | 200 kts | 90° |
| 2026-04-29 07:02 | 49.90944 | 13.76708 | 9509 ft | 201 kts | 90° |
| 2026-04-29 07:02 | 49.90850 | 13.78853 | 9313 ft | 201 kts | 90° |
| 2026-04-29 07:03 | 49.90756 | 13.81004 | 9141 ft | 199 kts | 90° |
| 2026-04-29 07:03 | 49.90657 | 13.83118 | 8968 ft | 198 kts | 90° |
| 2026-04-29 07:03 | 49.90558 | 13.85246 | 8773 ft | 197 kts | 90° |
| 2026-04-29 07:03 | 49.90463 | 13.87359 | 8592 ft | 196 kts | 90° |
| 2026-04-29 07:04 | 49.90369 | 13.89460 | 8419 ft | 195 kts | 90° |
| 2026-04-29 07:04 | 49.90278 | 13.91566 | 8237 ft | 194 kts | 90° |
| 2026-04-29 07:04 | 49.90201 | 13.93319 | 8092 ft | 194 kts | 90° |
| 2026-04-29 07:04 | 49.90173 | 13.93953 | 8039 ft | 193 kts | 90° |
| 2026-04-29 07:05 | 49.90086 | 13.96025 | 7862 ft | 192 kts | 90° |
| 2026-04-29 07:05 | 49.90001 | 13.98080 | 7697 ft | 191 kts | 90° |
| 2026-04-29 07:05 | 49.89919 | 14.00103 | 7539 ft | 190 kts | 90° |
| 2026-04-29 07:05 | 49.89833 | 14.02145 | 7363 ft | 189 kts | 90° |
| 2026-04-29 07:06 | 49.89745 | 14.04163 | 7189 ft | 188 kts | 90° |
| 2026-04-29 07:06 | 49.89654 | 14.06190 | 7005 ft | 187 kts | 90° |
| 2026-04-29 07:06 | 49.89560 | 14.08200 | 6840 ft | 186 kts | 90° |
| 2026-04-29 07:06 | 49.89464 | 14.10174 | 6669 ft | 186 kts | 90° |
| 2026-04-29 07:07 | 49.89370 | 14.12187 | 6519 ft | 185 kts | 90° |
| 2026-04-29 07:07 | 49.89278 | 14.14155 | 6366 ft | 184 kts | 90° |
| 2026-04-29 07:07 | 49.89184 | 14.16134 | 6218 ft | 183 kts | 90° |
| 2026-04-29 07:07 | 49.89095 | 14.18085 | 6052 ft | 183 kts | 90° |
| 2026-04-29 07:08 | 49.89009 | 14.20046 | 5901 ft | 182 kts | 90° |
| 2026-04-29 07:08 | 49.88929 | 14.22014 | 5744 ft | 182 kts | 90° |
| 2026-04-29 07:08 | 49.88850 | 14.23956 | 5592 ft | 181 kts | 90° |
| 2026-04-29 07:08 | 49.88770 | 14.25912 | 5447 ft | 181 kts | 90° |
| 2026-04-29 07:09 | 49.88695 | 14.27849 | 5296 ft | 180 kts | 90° |
| 2026-04-29 07:09 | 49.88621 | 14.29779 | 5159 ft | 179 kts | 89° |
| 2026-04-29 07:09 | 49.88889 | 14.31613 | 5003 ft | 175 kts | 64° |
| 2026-04-29 07:09 | 49.89376 | 14.33337 | 4867 ft | 174 kts | 65° |
| 2026-04-29 07:10 | 49.89860 | 14.35062 | 4728 ft | 174 kts | 65° |
| 2026-04-29 07:10 | 49.90344 | 14.36770 | 4595 ft | 173 kts | 65° |
| 2026-04-29 07:10 | 49.90830 | 14.38486 | 4460 ft | 172 kts | 65° |
| 2026-04-29 07:10 | 49.91310 | 14.40176 | 4325 ft | 172 kts | 65° |
| 2026-04-29 07:11 | 49.91795 | 14.41877 | 4188 ft | 172 kts | 65° |
| 2026-04-29 07:11 | 49.92274 | 14.43550 | 4040 ft | 172 kts | 65° |
| 2026-04-29 07:11 | 49.92764 | 14.45261 | 3980 ft | 170 kts | 65° |
| 2026-04-29 07:11 | 49.93234 | 14.46903 | 3980 ft | 167 kts | 64° |
| 2026-04-29 07:12 | 49.93710 | 14.48569 | 3987 ft | 170 kts | 65° |
| 2026-04-29 07:12 | 49.94194 | 14.50237 | 3986 ft | 172 kts | 61° |
| 2026-04-29 07:12 | 49.95105 | 14.51394 | 3980 ft | 178 kts | 17° |
| 2026-04-29 07:12 | 49.96328 | 14.51091 | 3998 ft | 188 kts | 337° |
| 2026-04-29 07:13 | 49.97481 | 14.50070 | 3993 ft | 190 kts | 335° |
| 2026-04-29 07:13 | 49.98506 | 14.48921 | 3964 ft | 175 kts | 322° |
| 2026-04-29 07:13 | 49.99349 | 14.47612 | 3979 ft | 170 kts | 319° |
| 2026-04-29 07:13 | 50.00140 | 14.46316 | 3973 ft | 162 kts | 315° |
| 2026-04-29 07:14 | 50.00979 | 14.45014 | 3974 ft | 178 kts | 321° |
| 2026-04-29 07:14 | 50.01654 | 14.43440 | 3819 ft | 167 kts | 301° |
| 2026-04-29 07:14 | 50.02160 | 14.41958 | 3665 ft | 149 kts | 300° |
| 2026-04-29 07:14 | 50.02622 | 14.40620 | 3464 ft | 138 kts | 311° |
| 2026-04-29 07:15 | 50.03127 | 14.39411 | 3115 ft | 126 kts | 307° |
| 2026-04-29 07:15 | 50.03622 | 14.38467 | 2704 ft | 106 kts | 326° |
| 2026-04-29 07:15 | 50.04218 | 14.37797 | 2153 ft | 105 kts | 333° |